sensor_id;sensor_type;location;lat;lon;timestamp;P1;durP1;ratioP1;P2;durP2;ratioP2
1262;SDS011;62267;50.112;8.704;2023-10-09T00:02:08;9.23;;;6.40;;
1262;SDS011;62267;50.112;8.704;2023-10-09T00:04:41;9.13;;;6.50;;
1262;SDS011;62267;50.112;8.704;2023-10-09T00:07:12;9.77;;;6.57;;
1262;SDS011;62267;50.112;8.704;2023-10-09T00:09:44;8.43;;;6.67;;
1262;SDS011;62267;50.112;8.704;2023-10-09T00:14:43;8.00;;;7.20;;
1262;SDS011;62267;50.112;8.704;2023-10-09T00:17:23;7.33;;;6.13;;
1262;SDS011;62267;50.112;8.704;2023-10-09T00:19:51;10.30;;;6.83;;
1262;SDS011;62267;50.112;8.704;2023-10-09T00:22:21;8.77;;;6.60;;
1262;SDS011;62267;50.112;8.704;2023-10-09T00:24:52;9.87;;;7.33;;
1262;SDS011;62267;50.112;8.704;2023-10-09T00:30:12;9.77;;;7.50;;
1262;SDS011;62267;50.112;8.704;2023-10-09T00:32:45;9.20;;;7.13;;
1262;SDS011;62267;50.112;8.704;2023-10-09T00:35:27;7.90;;;6.60;;
1262;SDS011;62267;50.112;8.704;2023-10-09T00:38:08;10.70;;;6.13;;
1262;SDS011;62267;50.112;8.704;2023-10-09T00:41:02;9.97;;;6.80;;
1262;SDS011;62267;50.112;8.704;2023-10-09T00:43:38;7.70;;;6.70;;
1262;SDS011;62267;50.112;8.704;2023-10-09T00:46:09;7.33;;;6.33;;
1262;SDS011;62267;50.112;8.704;2023-10-09T00:48:47;8.40;;;6.10;;
1262;SDS011;62267;50.112;8.704;2023-10-09T00:51:15;7.60;;;6.53;;
1262;SDS011;62267;50.112;8.704;2023-10-09T00:53:49;8.97;;;6.47;;
1262;SDS011;62267;50.112;8.704;2023-10-09T00:56:18;15.60;;;8.23;;
1262;SDS011;62267;50.112;8.704;2023-10-09T00:58:53;7.93;;;6.20;;
1262;SDS011;62267;50.112;8.704;2023-10-09T01:01:35;12.70;;;6.70;;
1262;SDS011;62267;50.112;8.704;2023-10-09T01:04:25;7.50;;;6.80;;
1262;SDS011;62267;50.112;8.704;2023-10-09T01:06:56;9.10;;;6.50;;
1262;SDS011;62267;50.112;8.704;2023-10-09T01:09:42;9.07;;;6.10;;
1262;SDS011;62267;50.112;8.704;2023-10-09T01:12:11;8.40;;;5.93;;
1262;SDS011;62267;50.112;8.704;2023-10-09T01:14:45;11.20;;;6.40;;
1262;SDS011;62267;50.112;8.704;2023-10-09T01:17:19;8.67;;;6.97;;
1262;SDS011;62267;50.112;8.704;2023-10-09T01:20:03;11.47;;;6.10;;
1262;SDS011;62267;50.112;8.704;2023-10-09T01:22:31;8.80;;;6.20;;
1262;SDS011;62267;50.112;8.704;2023-10-09T01:25:00;12.03;;;7.00;;
1262;SDS011;62267;50.112;8.704;2023-10-09T01:27:32;9.43;;;6.93;;
1262;SDS011;62267;50.112;8.704;2023-10-09T01:30:00;8.10;;;6.30;;
1262;SDS011;62267;50.112;8.704;2023-10-09T01:32:29;10.70;;;7.43;;
1262;SDS011;62267;50.112;8.704;2023-10-09T01:34:57;6.90;;;6.27;;
1262;SDS011;62267;50.112;8.704;2023-10-09T01:37:24;10.10;;;7.27;;
1262;SDS011;62267;50.112;8.704;2023-10-09T01:39:53;8.93;;;6.30;;
1262;SDS011;62267;50.112;8.704;2023-10-09T01:42:26;9.23;;;6.33;;
1262;SDS011;62267;50.112;8.704;2023-10-09T01:44:57;10.90;;;6.30;;
1262;SDS011;62267;50.112;8.704;2023-10-09T01:47:25;9.23;;;5.80;;
1262;SDS011;62267;50.112;8.704;2023-10-09T01:49:59;6.60;;;5.90;;
1262;SDS011;62267;50.112;8.704;2023-10-09T01:52:31;9.17;;;7.50;;
1262;SDS011;62267;50.112;8.704;2023-10-09T01:55:02;10.70;;;7.30;;
1262;SDS011;62267;50.112;8.704;2023-10-09T01:57:41;7.60;;;6.80;;
1262;SDS011;62267;50.112;8.704;2023-10-09T02:00:11;8.70;;;6.77;;
1262;SDS011;62267;50.112;8.704;2023-10-09T02:02:43;9.80;;;6.50;;
1262;SDS011;62267;50.112;8.704;2023-10-09T02:05:12;7.67;;;6.80;;
1262;SDS011;62267;50.112;8.704;2023-10-09T02:07:39;6.93;;;5.90;;
1262;SDS011;62267;50.112;8.704;2023-10-09T02:10:08;7.53;;;6.30;;
1262;SDS011;62267;50.112;8.704;2023-10-09T02:12:48;9.27;;;6.83;;
1262;SDS011;62267;50.112;8.704;2023-10-09T02:15:38;10.10;;;7.30;;
1262;SDS011;62267;50.112;8.704;2023-10-09T02:18:10;8.00;;;6.87;;
1262;SDS011;62267;50.112;8.704;2023-10-09T02:20:51;8.43;;;6.20;;
1262;SDS011;62267;50.112;8.704;2023-10-09T02:23:28;7.20;;;6.50;;
1262;SDS011;62267;50.112;8.704;2023-10-09T02:26:07;6.90;;;6.07;;
1262;SDS011;62267;50.112;8.704;2023-10-09T02:28:46;11.57;;;6.37;;
1262;SDS011;62267;50.112;8.704;2023-10-09T02:31:27;9.37;;;6.60;;
1262;SDS011;62267;50.112;8.704;2023-10-09T02:34:03;8.80;;;6.50;;
1262;SDS011;62267;50.112;8.704;2023-10-09T02:36:43;9.10;;;6.37;;
1262;SDS011;62267;50.112;8.704;2023-10-09T02:39:16;10.30;;;7.30;;
1262;SDS011;62267;50.112;8.704;2023-10-09T02:41:57;13.23;;;6.13;;
1262;SDS011;62267;50.112;8.704;2023-10-09T02:44:35;10.93;;;6.97;;
1262;SDS011;62267;50.112;8.704;2023-10-09T02:47:12;10.57;;;6.83;;
1262;SDS011;62267;50.112;8.704;2023-10-09T02:49:47;18.90;;;8.00;;
1262;SDS011;62267;50.112;8.704;2023-10-09T02:52:16;10.10;;;8.40;;
1262;SDS011;62267;50.112;8.704;2023-10-09T02:54:52;13.40;;;7.43;;
1262;SDS011;62267;50.112;8.704;2023-10-09T02:57:27;9.50;;;7.27;;
1262;SDS011;62267;50.112;8.704;2023-10-09T03:00:05;8.80;;;7.60;;
1262;SDS011;62267;50.112;8.704;2023-10-09T03:02:46;12.73;;;7.47;;
1262;SDS011;62267;50.112;8.704;2023-10-09T03:05:17;13.20;;;7.80;;
1262;SDS011;62267;50.112;8.704;2023-10-09T03:07:46;14.03;;;7.70;;
1262;SDS011;62267;50.112;8.704;2023-10-09T03:10:15;8.90;;;7.30;;
1262;SDS011;62267;50.112;8.704;2023-10-09T03:12:43;11.17;;;8.60;;
1262;SDS011;62267;50.112;8.704;2023-10-09T03:15:11;17.93;;;9.10;;
1262;SDS011;62267;50.112;8.704;2023-10-09T03:17:39;15.53;;;8.70;;
1262;SDS011;62267;50.112;8.704;2023-10-09T03:20:09;14.20;;;9.03;;
1262;SDS011;62267;50.112;8.704;2023-10-09T03:22:46;12.27;;;9.10;;
1262;SDS011;62267;50.112;8.704;2023-10-09T03:25:15;12.53;;;9.30;;
1262;SDS011;62267;50.112;8.704;2023-10-09T03:27:44;13.53;;;9.20;;
1262;SDS011;62267;50.112;8.704;2023-10-09T03:30:13;13.17;;;9.63;;
1262;SDS011;62267;50.112;8.704;2023-10-09T03:32:44;16.10;;;9.90;;
1262;SDS011;62267;50.112;8.704;2023-10-09T03:35:17;12.00;;;9.40;;
1262;SDS011;62267;50.112;8.704;2023-10-09T03:37:54;13.37;;;10.03;;
1262;SDS011;62267;50.112;8.704;2023-10-09T03:40:23;11.90;;;9.60;;
1262;SDS011;62267;50.112;8.704;2023-10-09T03:42:52;16.97;;;10.23;;
1262;SDS011;62267;50.112;8.704;2023-10-09T03:45:19;11.63;;;9.30;;
1262;SDS011;62267;50.112;8.704;2023-10-09T03:47:54;10.90;;;9.13;;
1262;SDS011;62267;50.112;8.704;2023-10-09T03:50:40;13.90;;;9.53;;
1262;SDS011;62267;50.112;8.704;2023-10-09T03:53:09;10.93;;;9.70;;
1262;SDS011;62267;50.112;8.704;2023-10-09T03:55:38;14.17;;;9.50;;
1262;SDS011;62267;50.112;8.704;2023-10-09T03:58:06;12.40;;;9.00;;
1262;SDS011;62267;50.112;8.704;2023-10-09T04:00:35;14.90;;;9.40;;
1262;SDS011;62267;50.112;8.704;2023-10-09T04:03:12;11.97;;;9.43;;
1262;SDS011;62267;50.112;8.704;2023-10-09T04:05:42;12.10;;;8.83;;
1262;SDS011;62267;50.112;8.704;2023-10-09T04:08:12;18.47;;;11.90;;
1262;SDS011;62267;50.112;8.704;2023-10-09T04:10:56;14.57;;;9.17;;
1262;SDS011;62267;50.112;8.704;2023-10-09T04:13:28;13.10;;;9.83;;
1262;SDS011;62267;50.112;8.704;2023-10-09T04:16:02;14.03;;;9.07;;
1262;SDS011;62267;50.112;8.704;2023-10-09T04:18:48;18.20;;;13.07;;
1262;SDS011;62267;50.112;8.704;2023-10-09T04:21:16;15.23;;;8.57;;
1262;SDS011;62267;50.112;8.704;2023-10-09T04:23:54;16.77;;;9.37;;
1262;SDS011;62267;50.112;8.704;2023-10-09T04:26:41;14.80;;;9.10;;
1262;SDS011;62267;50.112;8.704;2023-10-09T04:29:11;15.33;;;10.27;;
1262;SDS011;62267;50.112;8.704;2023-10-09T04:31:45;15.80;;;10.57;;
1262;SDS011;62267;50.112;8.704;2023-10-09T04:34:18;14.03;;;10.30;;
1262;SDS011;62267;50.112;8.704;2023-10-09T04:36:51;15.53;;;8.90;;
1262;SDS011;62267;50.112;8.704;2023-10-09T04:39:27;10.87;;;8.43;;
1262;SDS011;62267;50.112;8.704;2023-10-09T04:41:55;13.23;;;9.50;;
1262;SDS011;62267;50.112;8.704;2023-10-09T04:44:46;11.53;;;9.60;;
1262;SDS011;62267;50.112;8.704;2023-10-09T04:47:32;16.30;;;11.00;;
1262;SDS011;62267;50.112;8.704;2023-10-09T04:52:38;16.30;;;10.07;;
1262;SDS011;62267;50.112;8.704;2023-10-09T04:55:05;16.97;;;9.17;;
1262;SDS011;62267;50.112;8.704;2023-10-09T04:57:34;15.50;;;9.10;;
1262;SDS011;62267;50.112;8.704;2023-10-09T05:00:15;14.90;;;9.00;;
1262;SDS011;62267;50.112;8.704;2023-10-09T05:02:54;16.07;;;10.20;;
1262;SDS011;62267;50.112;8.704;2023-10-09T05:05:24;12.10;;;9.43;;
1262;SDS011;62267;50.112;8.704;2023-10-09T05:08:04;16.73;;;9.03;;
1262;SDS011;62267;50.112;8.704;2023-10-09T05:10:46;14.60;;;9.60;;
1262;SDS011;62267;50.112;8.704;2023-10-09T05:13:29;15.53;;;9.67;;
1262;SDS011;62267;50.112;8.704;2023-10-09T05:16:10;12.93;;;9.47;;
1262;SDS011;62267;50.112;8.704;2023-10-09T05:18:59;14.10;;;10.33;;
1262;SDS011;62267;50.112;8.704;2023-10-09T05:21:37;15.90;;;11.00;;
1262;SDS011;62267;50.112;8.704;2023-10-09T05:24:09;14.87;;;9.70;;
1262;SDS011;62267;50.112;8.704;2023-10-09T05:26:50;12.63;;;9.70;;
1262;SDS011;62267;50.112;8.704;2023-10-09T05:29:18;12.97;;;9.33;;
1262;SDS011;62267;50.112;8.704;2023-10-09T05:31:51;16.57;;;10.17;;
1262;SDS011;62267;50.112;8.704;2023-10-09T05:34:42;14.30;;;9.93;;
1262;SDS011;62267;50.112;8.704;2023-10-09T05:40:04;15.33;;;10.20;;
1262;SDS011;62267;50.112;8.704;2023-10-09T05:42:45;19.97;;;9.53;;
1262;SDS011;62267;50.112;8.704;2023-10-09T05:45:25;16.30;;;9.37;;
1262;SDS011;62267;50.112;8.704;2023-10-09T05:48:12;16.43;;;9.00;;
1262;SDS011;62267;50.112;8.704;2023-10-09T05:50:39;12.37;;;9.60;;
1262;SDS011;62267;50.112;8.704;2023-10-09T05:53:25;12.00;;;9.80;;
1262;SDS011;62267;50.112;8.704;2023-10-09T05:56:13;12.60;;;9.50;;
1262;SDS011;62267;50.112;8.704;2023-10-09T05:58:58;16.83;;;10.00;;
1262;SDS011;62267;50.112;8.704;2023-10-09T06:01:44;22.77;;;10.17;;
1262;SDS011;62267;50.112;8.704;2023-10-09T06:04:30;18.80;;;9.87;;
1262;SDS011;62267;50.112;8.704;2023-10-09T06:07:30;21.20;;;9.53;;
1262;SDS011;62267;50.112;8.704;2023-10-09T06:10:15;14.80;;;10.60;;
1262;SDS011;62267;50.112;8.704;2023-10-09T06:12:59;13.60;;;9.33;;
1262;SDS011;62267;50.112;8.704;2023-10-09T06:15:35;17.83;;;9.90;;
1262;SDS011;62267;50.112;8.704;2023-10-09T06:18:15;18.60;;;9.73;;
1262;SDS011;62267;50.112;8.704;2023-10-09T06:21:00;18.27;;;9.40;;
1262;SDS011;62267;50.112;8.704;2023-10-09T06:23:36;18.60;;;9.40;;
1262;SDS011;62267;50.112;8.704;2023-10-09T06:26:22;13.77;;;8.77;;
1262;SDS011;62267;50.112;8.704;2023-10-09T06:28:51;12.60;;;8.80;;
1262;SDS011;62267;50.112;8.704;2023-10-09T06:31:37;15.23;;;8.80;;
1262;SDS011;62267;50.112;8.704;2023-10-09T06:34:26;15.27;;;9.43;;
1262;SDS011;62267;50.112;8.704;2023-10-09T06:37:02;15.90;;;9.20;;
1262;SDS011;62267;50.112;8.704;2023-10-09T06:39:36;11.87;;;9.47;;
1262;SDS011;62267;50.112;8.704;2023-10-09T06:42:17;15.80;;;9.80;;
1262;SDS011;62267;50.112;8.704;2023-10-09T06:45:03;12.47;;;9.53;;
1262;SDS011;62267;50.112;8.704;2023-10-09T06:47:40;20.20;;;9.33;;
1262;SDS011;62267;50.112;8.704;2023-10-09T06:50:09;12.83;;;9.07;;
1262;SDS011;62267;50.112;8.704;2023-10-09T06:52:49;18.20;;;9.70;;
1262;SDS011;62267;50.112;8.704;2023-10-09T06:55:35;16.57;;;10.40;;
1262;SDS011;62267;50.112;8.704;2023-10-09T06:58:24;16.77;;;9.40;;
1262;SDS011;62267;50.112;8.704;2023-10-09T07:00:56;14.63;;;10.27;;
1262;SDS011;62267;50.112;8.704;2023-10-09T07:03:42;17.63;;;9.60;;
1262;SDS011;62267;50.112;8.704;2023-10-09T07:06:20;20.60;;;10.40;;
1262;SDS011;62267;50.112;8.704;2023-10-09T07:09:12;16.33;;;9.50;;
1262;SDS011;62267;50.112;8.704;2023-10-09T07:11:43;14.40;;;9.17;;
1262;SDS011;62267;50.112;8.704;2023-10-09T07:14:13;16.77;;;9.10;;
1262;SDS011;62267;50.112;8.704;2023-10-09T07:17:06;15.50;;;9.17;;
1262;SDS011;62267;50.112;8.704;2023-10-09T07:19:54;18.13;;;8.93;;
1262;SDS011;62267;50.112;8.704;2023-10-09T07:22:21;16.27;;;9.00;;
1262;SDS011;62267;50.112;8.704;2023-10-09T07:24:50;9.63;;;7.83;;
1262;SDS011;62267;50.112;8.704;2023-10-09T07:27:31;11.10;;;8.40;;
1262;SDS011;62267;50.112;8.704;2023-10-09T07:30:12;16.87;;;10.20;;
1262;SDS011;62267;50.112;8.704;2023-10-09T07:33:00;12.67;;;9.27;;
1262;SDS011;62267;50.112;8.704;2023-10-09T07:35:41;13.83;;;8.73;;
1262;SDS011;62267;50.112;8.704;2023-10-09T07:38:14;15.80;;;9.00;;
1262;SDS011;62267;50.112;8.704;2023-10-09T07:40:46;18.43;;;9.93;;
1262;SDS011;62267;50.112;8.704;2023-10-09T07:43:42;12.73;;;9.17;;
1262;SDS011;62267;50.112;8.704;2023-10-09T07:46:13;15.27;;;8.30;;
1262;SDS011;62267;50.112;8.704;2023-10-09T07:49:00;16.03;;;8.43;;
1262;SDS011;62267;50.112;8.704;2023-10-09T07:51:38;13.53;;;9.53;;
1262;SDS011;62267;50.112;8.704;2023-10-09T07:54:11;12.37;;;8.50;;
1262;SDS011;62267;50.112;8.704;2023-10-09T07:56:42;19.93;;;9.83;;
1262;SDS011;62267;50.112;8.704;2023-10-09T07:59:14;18.20;;;9.23;;
1262;SDS011;62267;50.112;8.704;2023-10-09T08:01:45;16.90;;;9.27;;
1262;SDS011;62267;50.112;8.704;2023-10-09T08:04:21;11.50;;;7.90;;
1262;SDS011;62267;50.112;8.704;2023-10-09T08:07:04;12.57;;;8.00;;
1262;SDS011;62267;50.112;8.704;2023-10-09T08:10:01;16.10;;;8.10;;
1262;SDS011;62267;50.112;8.704;2023-10-09T08:12:50;10.97;;;7.37;;
1262;SDS011;62267;50.112;8.704;2023-10-09T08:15:17;9.60;;;7.30;;
1262;SDS011;62267;50.112;8.704;2023-10-09T08:17:49;13.20;;;8.37;;
1262;SDS011;62267;50.112;8.704;2023-10-09T08:20:30;14.90;;;8.13;;
1262;SDS011;62267;50.112;8.704;2023-10-09T08:23:17;19.23;;;10.10;;
1262;SDS011;62267;50.112;8.704;2023-10-09T08:26:03;11.20;;;8.20;;
1262;SDS011;62267;50.112;8.704;2023-10-09T08:28:41;15.93;;;7.80;;
1262;SDS011;62267;50.112;8.704;2023-10-09T08:31:10;17.23;;;8.70;;
1262;SDS011;62267;50.112;8.704;2023-10-09T08:33:57;11.73;;;8.27;;
1262;SDS011;62267;50.112;8.704;2023-10-09T08:36:28;13.53;;;9.03;;
1262;SDS011;62267;50.112;8.704;2023-10-09T08:39:03;10.60;;;7.70;;
1262;SDS011;62267;50.112;8.704;2023-10-09T08:41:49;18.60;;;8.20;;
1262;SDS011;62267;50.112;8.704;2023-10-09T08:44:19;13.03;;;8.40;;
1262;SDS011;62267;50.112;8.704;2023-10-09T08:46:51;15.07;;;8.40;;
1262;SDS011;62267;50.112;8.704;2023-10-09T08:49:20;12.33;;;7.90;;
1262;SDS011;62267;50.112;8.704;2023-10-09T08:51:48;16.93;;;8.30;;
1262;SDS011;62267;50.112;8.704;2023-10-09T08:54:19;14.43;;;8.47;;
1262;SDS011;62267;50.112;8.704;2023-10-09T08:56:47;12.47;;;7.73;;
1262;SDS011;62267;50.112;8.704;2023-10-09T08:59:19;11.47;;;8.07;;
1262;SDS011;62267;50.112;8.704;2023-10-09T09:01:48;12.97;;;7.63;;
1262;SDS011;62267;50.112;8.704;2023-10-09T09:04:34;13.83;;;7.83;;
1262;SDS011;62267;50.112;8.704;2023-10-09T09:07:26;12.50;;;8.63;;
1262;SDS011;62267;50.112;8.704;2023-10-09T09:09:54;14.50;;;8.90;;
1262;SDS011;62267;50.112;8.704;2023-10-09T09:12:25;14.33;;;9.00;;
1262;SDS011;62267;50.112;8.704;2023-10-09T09:14:57;9.87;;;7.33;;
1262;SDS011;62267;50.112;8.704;2023-10-09T09:17:29;19.27;;;9.47;;
1262;SDS011;62267;50.112;8.704;2023-10-09T09:19:59;20.93;;;9.40;;
1262;SDS011;62267;50.112;8.704;2023-10-09T09:22:27;10.33;;;7.83;;
1262;SDS011;62267;50.112;8.704;2023-10-09T09:24:57;17.33;;;8.00;;
1262;SDS011;62267;50.112;8.704;2023-10-09T09:27:45;11.77;;;9.43;;
1262;SDS011;62267;50.112;8.704;2023-10-09T09:30:23;27.33;;;12.63;;
1262;SDS011;62267;50.112;8.704;2023-10-09T09:32:51;19.60;;;10.07;;
1262;SDS011;62267;50.112;8.704;2023-10-09T09:35:39;18.90;;;7.87;;
1262;SDS011;62267;50.112;8.704;2023-10-09T09:38:10;18.67;;;8.80;;
1262;SDS011;62267;50.112;8.704;2023-10-09T09:40:44;13.40;;;7.83;;
1262;SDS011;62267;50.112;8.704;2023-10-09T09:43:12;15.03;;;8.63;;
1262;SDS011;62267;50.112;8.704;2023-10-09T09:45:48;12.50;;;9.13;;
1262;SDS011;62267;50.112;8.704;2023-10-09T09:48:19;10.70;;;7.83;;
1262;SDS011;62267;50.112;8.704;2023-10-09T09:50:47;14.03;;;8.20;;
1262;SDS011;62267;50.112;8.704;2023-10-09T09:53:20;11.83;;;8.17;;
1262;SDS011;62267;50.112;8.704;2023-10-09T09:55:51;14.70;;;8.87;;
1262;SDS011;62267;50.112;8.704;2023-10-09T09:58:26;14.83;;;8.50;;
1262;SDS011;62267;50.112;8.704;2023-10-09T10:01:01;12.67;;;7.93;;
1262;SDS011;62267;50.112;8.704;2023-10-09T10:03:32;12.33;;;8.90;;
1262;SDS011;62267;50.112;8.704;2023-10-09T10:06:02;15.50;;;9.50;;
1262;SDS011;62267;50.112;8.704;2023-10-09T10:08:37;14.00;;;7.43;;
1262;SDS011;62267;50.112;8.704;2023-10-09T10:11:07;13.57;;;7.87;;
1262;SDS011;62267;50.112;8.704;2023-10-09T10:13:55;11.50;;;8.00;;
1262;SDS011;62267;50.112;8.704;2023-10-09T10:16:26;14.30;;;8.43;;
1262;SDS011;62267;50.112;8.704;2023-10-09T10:19:02;21.00;;;8.60;;
1262;SDS011;62267;50.112;8.704;2023-10-09T10:21:45;12.93;;;8.23;;
1262;SDS011;62267;50.112;8.704;2023-10-09T10:27:14;16.10;;;8.20;;
1262;SDS011;62267;50.112;8.704;2023-10-09T10:35:20;18.73;;;9.17;;
1262;SDS011;62267;50.112;8.704;2023-10-09T10:37:58;14.57;;;8.13;;
1262;SDS011;62267;50.112;8.704;2023-10-09T10:40:41;11.67;;;7.90;;
1262;SDS011;62267;50.112;8.704;2023-10-09T10:43:16;16.30;;;8.50;;
1262;SDS011;62267;50.112;8.704;2023-10-09T10:46:21;11.47;;;7.67;;
1262;SDS011;62267;50.112;8.704;2023-10-09T10:49:02;16.93;;;8.50;;
1262;SDS011;62267;50.112;8.704;2023-10-09T10:51:39;13.40;;;7.77;;
1262;SDS011;62267;50.112;8.704;2023-10-09T10:54:08;12.03;;;7.03;;
1262;SDS011;62267;50.112;8.704;2023-10-09T10:56:54;17.50;;;7.63;;
1262;SDS011;62267;50.112;8.704;2023-10-09T10:59:30;11.40;;;7.87;;
1262;SDS011;62267;50.112;8.704;2023-10-09T11:02:09;10.47;;;6.97;;
1262;SDS011;62267;50.112;8.704;2023-10-09T11:04:37;11.63;;;7.13;;
1262;SDS011;62267;50.112;8.704;2023-10-09T11:07:08;11.70;;;8.17;;
1262;SDS011;62267;50.112;8.704;2023-10-09T11:09:49;12.83;;;7.73;;
1262;SDS011;62267;50.112;8.704;2023-10-09T11:15:09;11.20;;;7.00;;
1262;SDS011;62267;50.112;8.704;2023-10-09T11:18:01;14.40;;;8.27;;
1262;SDS011;62267;50.112;8.704;2023-10-09T11:20:36;19.30;;;7.90;;
1262;SDS011;62267;50.112;8.704;2023-10-09T11:23:05;14.50;;;7.40;;
1262;SDS011;62267;50.112;8.704;2023-10-09T11:25:47;14.67;;;8.10;;
1262;SDS011;62267;50.112;8.704;2023-10-09T11:28:23;13.83;;;6.70;;
1262;SDS011;62267;50.112;8.704;2023-10-09T11:31:10;12.03;;;6.37;;
1262;SDS011;62267;50.112;8.704;2023-10-09T11:36:11;13.67;;;6.80;;
1262;SDS011;62267;50.112;8.704;2023-10-09T11:38:39;9.30;;;7.57;;
1262;SDS011;62267;50.112;8.704;2023-10-09T11:41:14;11.83;;;6.73;;
1262;SDS011;62267;50.112;8.704;2023-10-09T11:43:52;11.60;;;7.20;;
1262;SDS011;62267;50.112;8.704;2023-10-09T11:46:24;9.23;;;7.13;;
1262;SDS011;62267;50.112;8.704;2023-10-09T11:49:15;9.73;;;6.40;;
1262;SDS011;62267;50.112;8.704;2023-10-09T11:51:46;11.50;;;7.20;;
1262;SDS011;62267;50.112;8.704;2023-10-09T11:54:32;12.53;;;7.90;;
1262;SDS011;62267;50.112;8.704;2023-10-09T11:57:01;12.73;;;7.17;;
1262;SDS011;62267;50.112;8.704;2023-10-09T11:59:29;9.63;;;6.33;;
1262;SDS011;62267;50.112;8.704;2023-10-09T12:02:07;13.30;;;7.30;;
1262;SDS011;62267;50.112;8.704;2023-10-09T12:04:39;9.40;;;6.80;;
1262;SDS011;62267;50.112;8.704;2023-10-09T12:07:12;9.63;;;6.80;;
1262;SDS011;62267;50.112;8.704;2023-10-09T12:09:40;10.50;;;7.67;;
1262;SDS011;62267;50.112;8.704;2023-10-09T12:12:08;12.20;;;8.60;;
1262;SDS011;62267;50.112;8.704;2023-10-09T12:14:35;11.90;;;7.37;;
1262;SDS011;62267;50.112;8.704;2023-10-09T12:17:07;19.60;;;7.33;;
1262;SDS011;62267;50.112;8.704;2023-10-09T12:19:36;13.40;;;7.37;;
1262;SDS011;62267;50.112;8.704;2023-10-09T12:22:07;12.70;;;6.60;;
1262;SDS011;62267;50.112;8.704;2023-10-09T12:24:43;12.97;;;7.93;;
1262;SDS011;62267;50.112;8.704;2023-10-09T12:27:10;10.83;;;6.70;;
1262;SDS011;62267;50.112;8.704;2023-10-09T12:29:38;12.23;;;6.27;;
1262;SDS011;62267;50.112;8.704;2023-10-09T12:32:11;14.60;;;7.23;;
1262;SDS011;62267;50.112;8.704;2023-10-09T12:34:39;11.17;;;7.30;;
1262;SDS011;62267;50.112;8.704;2023-10-09T12:37:08;11.70;;;7.10;;
1262;SDS011;62267;50.112;8.704;2023-10-09T12:39:35;10.73;;;8.00;;
1262;SDS011;62267;50.112;8.704;2023-10-09T12:42:06;12.83;;;7.17;;
1262;SDS011;62267;50.112;8.704;2023-10-09T12:44:35;16.23;;;8.10;;
1262;SDS011;62267;50.112;8.704;2023-10-09T12:47:07;9.80;;;6.30;;
1262;SDS011;62267;50.112;8.704;2023-10-09T12:49:38;19.93;;;7.00;;
1262;SDS011;62267;50.112;8.704;2023-10-09T12:52:10;13.30;;;6.90;;
1262;SDS011;62267;50.112;8.704;2023-10-09T12:54:43;9.77;;;6.70;;
1262;SDS011;62267;50.112;8.704;2023-10-09T12:57:13;9.40;;;6.93;;
1262;SDS011;62267;50.112;8.704;2023-10-09T12:59:40;10.30;;;6.60;;
1262;SDS011;62267;50.112;8.704;2023-10-09T13:02:15;10.23;;;6.53;;
1262;SDS011;62267;50.112;8.704;2023-10-09T13:04:56;11.80;;;7.73;;
1262;SDS011;62267;50.112;8.704;2023-10-09T13:07:28;8.70;;;6.80;;
1262;SDS011;62267;50.112;8.704;2023-10-09T13:09:56;10.20;;;6.60;;
1262;SDS011;62267;50.112;8.704;2023-10-09T13:12:38;10.23;;;6.20;;
1262;SDS011;62267;50.112;8.704;2023-10-09T13:15:20;11.50;;;7.33;;
1262;SDS011;62267;50.112;8.704;2023-10-09T13:17:47;11.53;;;6.93;;
1262;SDS011;62267;50.112;8.704;2023-10-09T13:20:15;9.03;;;6.60;;
1262;SDS011;62267;50.112;8.704;2023-10-09T13:22:44;10.20;;;6.50;;
1262;SDS011;62267;50.112;8.704;2023-10-09T13:25:26;9.03;;;6.60;;
1262;SDS011;62267;50.112;8.704;2023-10-09T13:28:06;15.77;;;6.50;;
1262;SDS011;62267;50.112;8.704;2023-10-09T13:30:37;10.00;;;6.90;;
1262;SDS011;62267;50.112;8.704;2023-10-09T13:33:07;9.57;;;6.90;;
1262;SDS011;62267;50.112;8.704;2023-10-09T13:35:36;11.10;;;6.50;;
1262;SDS011;62267;50.112;8.704;2023-10-09T13:38:14;9.30;;;6.70;;
1262;SDS011;62267;50.112;8.704;2023-10-09T13:40:43;13.00;;;6.63;;
1262;SDS011;62267;50.112;8.704;2023-10-09T13:43:10;11.53;;;7.03;;
1262;SDS011;62267;50.112;8.704;2023-10-09T13:45:43;7.90;;;6.40;;
1262;SDS011;62267;50.112;8.704;2023-10-09T13:48:16;11.07;;;7.10;;
1262;SDS011;62267;50.112;8.704;2023-10-09T13:50:46;8.57;;;6.30;;
1262;SDS011;62267;50.112;8.704;2023-10-09T13:53:14;12.77;;;7.30;;
1262;SDS011;62267;50.112;8.704;2023-10-09T13:55:42;10.30;;;7.07;;
1262;SDS011;62267;50.112;8.704;2023-10-09T13:58:13;10.07;;;7.40;;
1262;SDS011;62267;50.112;8.704;2023-10-09T14:00:47;12.13;;;6.90;;
1262;SDS011;62267;50.112;8.704;2023-10-09T14:03:16;12.67;;;7.17;;
1262;SDS011;62267;50.112;8.704;2023-10-09T14:05:46;9.40;;;7.00;;
1262;SDS011;62267;50.112;8.704;2023-10-09T14:08:36;9.63;;;6.23;;
1262;SDS011;62267;50.112;8.704;2023-10-09T14:11:08;11.70;;;6.47;;
1262;SDS011;62267;50.112;8.704;2023-10-09T14:13:40;13.27;;;6.83;;
1262;SDS011;62267;50.112;8.704;2023-10-09T14:16:08;14.30;;;7.77;;
1262;SDS011;62267;50.112;8.704;2023-10-09T14:18:50;11.23;;;7.47;;
1262;SDS011;62267;50.112;8.704;2023-10-09T14:21:20;8.83;;;6.70;;
1262;SDS011;62267;50.112;8.704;2023-10-09T14:23:48;18.37;;;8.47;;
1262;SDS011;62267;50.112;8.704;2023-10-09T14:26:15;10.30;;;6.57;;
1262;SDS011;62267;50.112;8.704;2023-10-09T14:28:47;10.60;;;6.20;;
1262;SDS011;62267;50.112;8.704;2023-10-09T14:31:15;10.17;;;7.03;;
1262;SDS011;62267;50.112;8.704;2023-10-09T14:33:48;14.13;;;6.97;;
1262;SDS011;62267;50.112;8.704;2023-10-09T14:36:20;8.63;;;6.50;;
1262;SDS011;62267;50.112;8.704;2023-10-09T14:38:51;9.30;;;6.30;;
1262;SDS011;62267;50.112;8.704;2023-10-09T14:41:19;11.30;;;7.13;;
1262;SDS011;62267;50.112;8.704;2023-10-09T14:43:50;14.77;;;7.60;;
1262;SDS011;62267;50.112;8.704;2023-10-09T14:46:18;12.63;;;7.30;;
1262;SDS011;62267;50.112;8.704;2023-10-09T14:48:54;12.07;;;6.90;;
1262;SDS011;62267;50.112;8.704;2023-10-09T14:51:24;10.27;;;8.10;;
1262;SDS011;62267;50.112;8.704;2023-10-09T14:53:55;16.50;;;8.40;;
1262;SDS011;62267;50.112;8.704;2023-10-09T14:56:28;11.23;;;7.70;;
1262;SDS011;62267;50.112;8.704;2023-10-09T14:58:56;12.10;;;8.27;;
1262;SDS011;62267;50.112;8.704;2023-10-09T15:01:28;11.57;;;8.23;;
1262;SDS011;62267;50.112;8.704;2023-10-09T15:03:59;11.47;;;8.03;;
1262;SDS011;62267;50.112;8.704;2023-10-09T15:06:27;9.87;;;7.73;;
1262;SDS011;62267;50.112;8.704;2023-10-09T15:08:56;13.00;;;8.17;;
1262;SDS011;62267;50.112;8.704;2023-10-09T15:11:25;13.87;;;8.57;;
1262;SDS011;62267;50.112;8.704;2023-10-09T15:13:55;13.50;;;9.20;;
1262;SDS011;62267;50.112;8.704;2023-10-09T15:16:24;13.07;;;8.67;;
1262;SDS011;62267;50.112;8.704;2023-10-09T15:18:57;13.63;;;9.10;;
1262;SDS011;62267;50.112;8.704;2023-10-09T15:21:29;15.40;;;8.40;;
1262;SDS011;62267;50.112;8.704;2023-10-09T15:23:59;13.70;;;9.57;;
1262;SDS011;62267;50.112;8.704;2023-10-09T15:26:27;16.67;;;9.20;;
1262;SDS011;62267;50.112;8.704;2023-10-09T15:29:00;15.43;;;10.37;;
1262;SDS011;62267;50.112;8.704;2023-10-09T15:31:30;14.13;;;9.00;;
1262;SDS011;62267;50.112;8.704;2023-10-09T15:33:59;10.37;;;8.37;;
1262;SDS011;62267;50.112;8.704;2023-10-09T15:36:26;11.60;;;8.60;;
1262;SDS011;62267;50.112;8.704;2023-10-09T15:38:58;9.03;;;8.00;;
1262;SDS011;62267;50.112;8.704;2023-10-09T15:41:29;13.50;;;7.60;;
1262;SDS011;62267;50.112;8.704;2023-10-09T15:43:57;14.63;;;9.20;;
1262;SDS011;62267;50.112;8.704;2023-10-09T15:46:25;15.23;;;7.67;;
1262;SDS011;62267;50.112;8.704;2023-10-09T15:48:53;13.10;;;8.77;;
1262;SDS011;62267;50.112;8.704;2023-10-09T15:51:22;13.50;;;10.33;;
1262;SDS011;62267;50.112;8.704;2023-10-09T15:53:51;13.67;;;8.00;;
1262;SDS011;62267;50.112;8.704;2023-10-09T15:56:18;16.27;;;9.30;;
1262;SDS011;62267;50.112;8.704;2023-10-09T15:58:47;15.40;;;10.80;;
1262;SDS011;62267;50.112;8.704;2023-10-09T16:01:15;13.63;;;9.90;;